Time;durP1;ratioP1;P1;durP2;ratioP2;P2;SDS_P1;SDS_P2;PMS_P1;PMS_P2;Temp;Humidity;BMP_temperature;BMP_pressure;BME280_temperature;BME280_humidity;BME280_pressure;Samples;Min_cycle;Max_cycle;Signal;HPM_P1;HPM_P2
2022/12/19 00:01:15;;;;;;;;;45.25;31.00;;;;;4.74;81.74;101542.72;4975737;28;45293;-47
2022/12/19 00:03:44;;;;;;;;;37.50;31.00;;;;;4.78;81.69;101551.28;4975984;28;45264;-47
2022/12/19 00:06:10;;;;;;;;;45.25;30.25;;;;;4.80;81.10;101540.66;4976049;28;45522;-45
2022/12/19 00:08:35;;;;;;;;;31.75;26.00;;;;;4.79;81.16;101558.25;4975904;28;46289;-45
2022/12/19 00:11:01;;;;;;;;;36.25;32.50;;;;;4.85;81.47;101557.91;4975643;28;45352;-43
2022/12/19 00:13:29;;;;;;;;;31.75;28.75;;;;;4.87;80.92;101555.16;4975821;28;45501;-43
2022/12/19 00:15:59;;;;;;;;;41.25;33.25;;;;;4.90;81.29;101547.09;4975838;28;45441;-46
2022/12/19 00:18:25;;;;;;;;;45.25;31.00;;;;;4.90;80.81;101547.09;4974236;28;48211;-46
2022/12/19 00:20:58;;;;;;;;;32.75;31.00;;;;;4.92;81.46;101543.41;4975737;28;45346;-48
2022/12/19 00:23:24;;;;;;;;;34.75;29.00;;;;;4.92;81.99;101545.19;4975639;28;45426;-47
2022/12/19 00:25:49;;;;;;;;;36.00;26.00;;;;;4.95;81.48;101543.22;4975600;28;45288;-49
2022/12/19 00:28:15;;;;;;;;;25.50;22.00;;;;;4.88;81.29;101528.72;4975674;28;45489;-48
2022/12/19 00:30:40;;;;;;;;;42.50;29.75;;;;;5.01;81.09;101536.75;4975234;28;45457;-45
2022/12/19 00:33:05;;;;;;;;;39.50;27.75;;;;;4.99;82.15;101520.16;4975602;28;45439;-46
2022/12/19 00:35:30;;;;;;;;;33.00;27.00;;;;;5.04;81.89;101530.44;4975532;28;45310;-50
2022/12/19 00:37:56;;;;;;;;;35.75;26.25;;;;;5.06;81.39;101534.69;4975275;28;46091;-48
2022/12/19 00:40:22;;;;;;;;;36.00;28.50;;;;;5.07;81.63;101531.13;4975251;28;45394;-46
2022/12/19 00:42:47;;;;;;;;;36.75;26.25;;;;;5.06;82.02;101524.16;4975230;28;45327;-48
2022/12/19 00:45:13;;;;;;;;;31.75;26.25;;;;;5.11;81.53;101529.16;4975498;27;45354;-45
2022/12/19 00:47:38;;;;;;;;;27.50;25.25;;;;;5.06;81.93;101515.41;4973587;28;48191;-48
2022/12/19 00:50:03;;;;;;;;;30.00;29.00;;;;;5.11;81.83;101510.69;4975078;28;45317;-46
2022/12/19 00:52:29;;;;;;;;;35.50;27.75;;;;;5.14;81.97;101518.38;4975527;28;45313;-48
2022/12/19 00:54:54;;;;;;;;;34.00;24.00;;;;;5.13;81.94;101511.41;4975594;28;45342;-45
2022/12/19 00:57:20;;;;;;;;;36.50;28.50;;;;;5.17;81.59;101512.94;4974866;28;46110;-47
2022/12/19 00:59:45;;;;;;;;;39.25;32.75;;;;;5.13;82.03;101495.59;4975357;28;45253;-57
2022/12/19 01:02:10;;;;;;;;;34.75;30.00;;;;;5.18;81.65;101502.31;4975230;28;45348;-46
2022/12/19 01:04:36;;;;;;;;;41.25;26.25;;;;;5.07;81.98;101470.47;4975476;28;45276;-52
2022/12/19 01:07:01;;;;;;;;;34.50;24.75;;;;;5.12;81.48;101478.94;4975119;28;45242;-48
2022/12/19 01:09:26;;;;;;;;;33.00;27.00;;;;;5.22;81.33;101497.66;4975010;28;45377;-47
2022/12/19 01:14:35;;;;;;;;;33.25;26.00;;;;;5.25;81.28;101498.34;4975316;28;45563;-47
2022/12/19 01:17:01;;;;;;;;;29.75;25.25;;;;;5.29;81.64;101504.28;4974667;28;45942;-44
2022/12/19 01:19:26;;;;;;;;;29.00;24.00;;;;;5.31;81.30;101512.97;4974800;28;45496;-47
2022/12/19 01:21:52;;;;;;;;;35.75;29.50;;;;;5.34;81.30;101511.91;4975175;28;45673;-47
2022/12/19 01:24:18;;;;;;;;;27.50;24.00;;;;;5.35;81.18;101505.69;4975317;28;45241;-48
2022/12/19 01:26:43;;;;;;;;;28.00;23.00;;;;;5.36;81.32;101505.59;4974800;28;46188;-45
2022/12/19 01:29:08;;;;;;;;;28.75;24.75;;;;;5.40;80.69;101512.38;4974904;28;45273;-45
2022/12/19 01:31:33;;;;;;;;;26.25;20.75;;;;;5.42;81.39;101504.38;4974745;28;45288;-46
2022/12/19 01:33:59;;;;;;;;;25.50;22.75;;;;;5.43;81.48;101501.63;4977430;27;45403;-49
2022/12/19 01:36:25;;;;;;;;;32.75;23.00;;;;;5.46;80.78;101506.72;4974719;28;45965;-56
2022/12/19 01:38:50;;;;;;;;;22.75;21.00;;;;;5.48;81.31;101511.91;4974643;28;45540;-53
2022/12/19 01:41:15;;;;;;;;;28.50;18.50;;;;;5.46;81.16;101501.44;4974966;28;45551;-58
2022/12/19 01:43:59;;;;;;;;;29.25;22.00;;;;;5.51;81.08;101502.00;4975158;28;45326;-49
2022/12/19 01:46:34;;;;;;;;;30.75;24.00;;;;;5.54;80.68;101497.50;4974688;28;46958;-53
2022/12/19 01:49:01;;;;;;;;;30.00;21.50;;;;;5.58;80.88;101499.84;4974612;28;45365;-54
2022/12/19 01:51:35;;;;;;;;;31.00;21.00;;;;;5.49;80.93;101479.31;4973686;28;45356;-52
2022/12/19 01:54:05;;;;;;;;;30.25;24.75;;;;;5.61;80.16;101489.09;4974769;28;45260;-45
2022/12/19 01:56:37;;;;;;;;;20.50;19.00;;;;;5.63;81.09;101487.19;4974302;28;45285;-57
2022/12/19 01:59:08;;;;;;;;;24.00;22.25;;;;;5.60;80.98;101482.09;4974446;28;45355;-54
2022/12/19 02:01:34;;;;;;;;;31.00;23.50;;;;;5.66;81.01;101494.09;4973524;28;45331;-57
2022/12/19 02:04:01;;;;;;;;;23.50;21.25;;;;;5.67;80.81;101493.97;4974386;28;45385;-50
2022/12/19 02:06:29;;;;;;;;;30.75;22.25;;;;;5.65;80.85;101487.97;4974293;28;45192;-50
2022/12/19 02:08:54;;;;;;;;;27.00;23.25;;;;;5.67;81.29;101503.69;4974288;28;45422;-48
2022/12/19 02:11:20;;;;;;;;;23.50;23.25;;;;;5.68;80.62;101502.75;4974238;28;45184;-54
2022/12/19 02:13:45;;;;;;;;;23.25;18.00;;;;;5.70;80.71;101507.00;4974694;28;45184;-56
2022/12/19 02:16:28;;;;;;;;;29.25;24.00;;;;;5.73;80.57;101504.16;4973686;28;46012;-59
2022/12/19 02:19:23;;;;;;;;;19.50;19.00;;;;;5.75;80.71;101504.91;4975466;28;45347;-53
2022/12/19 02:21:48;;;;;;;;;26.50;23.50;;;;;5.76;80.23;101500.47;4974132;28;45391;-56
2022/12/19 02:24:38;;;;;;;;;24.75;19.50;;;;;5.78;80.58;101495.94;4974440;28;45235;-57
2022/12/19 02:27:57;;;;;;;;;32.25;19.75;;;;;5.79;80.57;101494.16;4973909;28;46020;-58
2022/12/19 02:30:46;;;;;;;;;17.50;13.50;;;;;5.79;80.50;101496.78;4952220;28;45424;-55
2022/12/19 02:33:39;;;;;;;;;30.75;20.75;;;;;5.81;80.37;101500.16;4952451;28;45446;-53
2022/12/19 02:36:23;;;;;;;;;19.00;18.75;;;;;5.81;80.53;101500.16;4952541;28;45353;-56
2022/12/19 02:39:09;;;;;;;;;27.00;21.75;;;;;5.45;80.82;101446.13;4951849;28;47233;-51
2022/12/19 02:41:43;;;;;;;;;24.75;22.75;;;;;5.84;80.84;101506.09;4952205;28;45390;-48
2022/12/19 02:44:34;;;;;;;;;26.25;20.50;;;;;5.87;80.64;101497.16;4952234;28;45575;-49
2022/12/19 02:47:03;;;;;;;;;16.25;12.50;;;;;5.88;80.37;101506.75;4958099;28;45597;-49
2022/12/19 02:49:32;;;;;;;;;24.75;18.50;;;;;5.85;81.05;101496.38;4951925;28;46538;-57
2022/12/19 02:52:08;;;;;;;;;27.50;18.75;;;;;5.79;80.62;101484.44;4952011;28;45395;-52
2022/12/19 02:54:33;;;;;;;;;12.50;9.25;;;;;5.88;80.78;101496.19;4953426;28;45270;-55
2022/12/19 02:57:15;;;;;;;;;25.50;17.25;;;;;5.89;80.88;101498.75;4952991;28;45306;-46
2022/12/19 02:59:49;;;;;;;;;23.00;18.00;;;;;5.80;80.65;101480.84;4952088;28;46139;-46
2022/12/19 03:02:51;;;;;;;;;23.50;19.50;;;;;5.94;80.81;101493.19;4951651;28;45432;-53
2022/12/19 03:05:37;;;;;;;;;23.50;17.00;;;;;5.94;80.88;101488.78;4954869;28;45535;-45
2022/12/19 03:08:03;;;;;;;;;21.00;12.50;;;;;5.97;81.23;101490.34;4955078;28;45463;-49
2022/12/19 03:10:47;;;;;;;;;21.25;15.75;;;;;6.00;80.93;101490.16;4954578;28;46178;-51
2022/12/19 03:13:23;;;;;;;;;21.00;20.25;;;;;5.99;80.83;101493.75;4954892;28;45472;-50
2022/12/19 03:15:50;;;;;;;;;21.00;16.50;;;;;6.02;81.00;101492.69;4954907;28;45395;-48
2022/12/19 03:18:17;;;;;;;;;21.25;17.25;;;;;6.02;81.07;101490.91;4955064;28;45459;-53
2022/12/19 03:21:00;;;;;;;;;29.25;18.50;;;;;6.05;80.92;101493.34;4954777;28;47154;-58
2022/12/19 03:23:27;;;;;;;;;26.25;15.75;;;;;6.06;81.02;101494.19;4954451;28;45295;-57
2022/12/19 03:25:58;;;;;;;;;24.50;16.25;;;;;6.05;80.83;101496.00;4954754;28;45214;-48
2022/12/19 03:28:33;;;;;;;;;29.25;16.00;;;;;6.07;81.20;101494.13;4954950;28;45499;-48
2022/12/19 03:31:01;;;;;;;;;20.75;17.75;;;;;6.07;81.43;101485.31;4954692;28;45371;-49
2022/12/19 03:33:30;;;;;;;;;18.00;13.75;;;;;6.07;81.20;101488.84;4954503;28;45385;-48
2022/12/19 03:35:58;;;;;;;;;20.50;18.50;;;;;6.09;81.12;101492.22;4954527;28;45416;-58
2022/12/19 03:38:26;;;;;;;;;19.00;18.50;;;;;6.10;81.50;101485.97;4954674;28;45384;-47
2022/12/19 03:40:54;;;;;;;;;23.00;16.25;;;;;6.11;81.34;101490.34;4954284;28;45444;-56
2022/12/19 03:43:23;;;;;;;;;22.75;18.00;;;;;6.13;81.25;101484.94;4976384;28;45268;-45
2022/12/19 03:46:15;;;;;;;;;21.75;16.50;;;;;6.14;80.98;101487.47;4976282;28;45320;-51
2022/12/19 03:48:49;;;;;;;;;18.50;17.75;;;;;6.14;81.15;101473.41;4975823;28;45528;-51
2022/12/19 03:51:33;;;;;;;;;26.00;15.50;;;;;6.17;80.97;101474.06;4975775;28;46046;-50
2022/12/19 03:54:15;;;;;;;;;22.00;17.00;;;;;6.18;80.98;101478.41;4975779;28;45392;-48
2022/12/19 03:57:03;;;;;;;;;17.75;14.25;;;;;6.21;80.89;101477.38;4975918;28;45394;-46
2022/12/19 03:59:43;;;;;;;;;20.75;18.25;;;;;6.21;81.33;101478.22;4976078;28;45402;-52
2022/12/19 04:02:12;;;;;;;;;12.00;12.00;;;;;6.24;80.81;101472.72;4975230;28;46099;-43
2022/12/19 04:04:44;;;;;;;;;17.75;17.75;;;;;6.28;80.89;101481.31;4976123;28;45376;-54
2022/12/19 04:07:12;;;;;;;;;17.25;14.50;;;;;6.29;80.58;101480.34;4975870;28;45365;-54
2022/12/19 04:09:41;;;;;;;;;15.50;11.75;;;;;6.33;80.79;101483.66;4975896;28;45304;-47
2022/12/19 04:12:24;;;;;;;;;18.00;15.75;;;;;6.34;80.93;101482.69;4975493;28;46376;-56
2022/12/19 04:14:50;;;;;;;;;16.75;14.75;;;;;6.40;80.97;101487.56;4975158;28;46121;-46
2022/12/19 04:17:38;;;;;;;;;21.25;15.50;;;;;6.42;80.46;101491.81;4975553;28;45320;-56
2022/12/19 04:20:10;;;;;;;;;18.00;12.75;;;;;6.43;80.39;101484.72;4975719;28;45394;-44
2022/12/19 04:22:35;;;;;;;;;16.00;14.25;;;;;6.46;79.90;101479.22;4975352;28;46456;-47
2022/12/19 04:25:03;;;;;;;;;17.25;14.75;;;;;6.48;80.23;101483.44;4975498;28;45357;-45
2022/12/19 04:27:32;;;;;;;;;15.25;15.25;;;;;6.53;80.26;101492.88;4974326;28;45260;-51
2022/12/19 04:30:00;;;;;;;;;15.75;11.50;;;;;6.52;79.79;101491.19;4975677;28;45392;-55
2022/12/19 04:32:28;;;;;;;;;16.75;14.25;;;;;6.56;80.18;101498.81;4974954;28;46226;-44
2022/12/19 04:34:53;;;;;;;;;21.50;15.00;;;;;6.55;79.95;101491.84;4975359;28;45488;-48
2022/12/19 04:37:19;;;;;;;;;19.25;16.50;;;;;6.56;79.78;101493.53;4975582;28;45329;-56
2022/12/19 04:39:44;;;;;;;;;17.75;14.50;;;;;6.57;80.21;101489.91;4975619;28;45377;-44
2022/12/19 04:42:10;;;;;;;;;20.25;15.00;;;;;6.61;80.07;101491.41;4975423;28;45492;-44
2022/12/19 04:44:35;;;;;;;;;19.50;12.50;;;;;6.64;80.23;101491.22;4975423;28;45213;-46
2022/12/19 04:47:00;;;;;;;;;16.50;14.25;;;;;6.64;79.66;101496.50;4975401;28;45377;-46
2022/12/19 04:49:26;;;;;;;;;16.50;12.00;;;;;6.66;79.54;101486.69;4975464;28;45503;-51
2022/12/19 04:51:51;;;;;;;;;12.25;11.00;;;;;6.67;80.00;101484.88;4975109;28;46083;-56
2022/12/19 04:54:16;;;;;;;;;22.25;15.75;;;;;6.66;80.07;101486.69;4975389;28;45255;-46
2022/12/19 04:56:42;;;;;;;;;18.50;12.25;;;;;6.69;80.00;101498.81;4975268;28;45414;-47
2022/12/19 04:59:08;;;;;;;;;19.00;14.00;;;;;6.69;80.42;101497.03;4975327;28;45212;-56
2022/12/19 05:01:33;;;;;;;;;18.00;16.00;;;;;6.72;79.78;101496.00;4975209;28;45361;-50
2022/12/19 05:03:59;;;;;;;;;19.25;14.25;;;;;6.74;79.94;101489.66;4974861;28;45384;-44
2022/12/19 05:06:24;;;;;;;;;19.50;13.75;;;;;6.73;80.15;101484.44;4975385;28;45287;-47
2022/12/19 05:08:49;;;;;;;;;14.75;13.00;;;;;6.78;80.32;101470.91;4975598;28;45339;-57
2022/12/19 05:11:16;;;;;;;;;21.75;14.75;;;;;6.45;80.18;101443.19;4974722;28;47277;-52
2022/12/19 05:13:41;;;;;;;;;16.25;14.25;;;;;6.74;79.09;101465.88;4975104;28;45457;-46
2022/12/19 05:16:09;;;;;;;;;16.00;13.25;;;;;6.84;79.74;101475.81;4974920;28;45886;-46
2022/12/19 05:18:35;;;;;;;;;16.75;13.25;;;;;6.83;79.67;101477.59;4974983;28;45354;-54
2022/12/19 05:21:01;;;;;;;;;16.75;12.50;;;;;6.86;80.04;101485.31;4974685;28;46216;-51
2022/12/19 05:23:27;;;;;;;;;23.75;16.75;;;;;6.80;79.75;101474.31;4974736;28;45351;-48
2022/12/19 05:25:52;;;;;;;;;21.25;13.25;;;;;6.87;80.06;101481.75;4974379;28;45359;-53
2022/12/19 05:28:18;;;;;;;;;18.50;15.75;;;;;6.88;80.53;101486.06;4974335;28;45411;-47
2022/12/19 05:30:44;;;;;;;;;17.25;12.75;;;;;6.90;80.53;101480.66;4974862;28;45416;-44
2022/12/19 05:33:10;;;;;;;;;15.00;13.50;;;;;6.92;79.96;101481.41;4974566;28;45142;-46
2022/12/19 05:35:35;;;;;;;;;17.50;14.25;;;;;6.91;79.71;101483.22;4974685;28;45457;-45
2022/12/19 05:38:01;;;;;;;;;23.75;19.00;;;;;6.91;80.44;101482.34;4974957;28;45335;-46
2022/12/19 05:40:27;;;;;;;;;16.00;13.00;;;;;6.92;80.27;101484.91;4974482;27;45364;-43
2022/12/19 05:42:53;;;;;;;;;14.50;11.25;;;;;6.93;80.28;101494.53;4975017;28;45334;-49
2022/12/19 05:45:18;;;;;;;;;15.25;13.75;;;;;6.92;80.36;101489.34;4974682;28;45303;-44
2022/12/19 05:47:45;;;;;;;;;19.75;15.00;;;;;6.93;81.02;101485.75;4974572;28;45522;-46
2022/12/19 05:50:12;;;;;;;;;23.00;16.00;;;;;6.96;80.19;101486.41;4974332;28;46330;-48
2022/12/19 05:52:37;;;;;;;;;16.50;13.75;;;;;6.97;79.83;101476.66;4975649;28;45357;-45
2022/12/19 05:55:04;;;;;;;;;16.25;10.50;;;;;7.00;80.29;101481.75;4974563;28;45353;-45
2022/12/19 05:57:30;;;;;;;;;20.25;13.00;;;;;7.00;80.50;101485.22;4974821;28;45400;-45
2022/12/19 05:59:55;;;;;;;;;17.75;16.25;;;;;6.99;79.90;101478.25;4974224;28;45962;-44
2022/12/19 06:02:20;;;;;;;;;21.75;16.00;;;;;7.05;80.25;101484.91;4974536;28;45418;-44
2022/12/19 06:04:46;;;;;;;;;15.50;12.50;;;;;7.06;80.51;101485.75;4974360;28;45417;-44
2022/12/19 06:07:11;;;;;;;;;18.75;17.00;;;;;7.06;79.98;101483.09;4974891;28;45252;-44
2022/12/19 06:09:36;;;;;;;;;19.00;14.75;;;;;7.07;79.84;101488.28;4974167;28;45291;-44
2022/12/19 06:12:02;;;;;;;;;18.50;12.75;;;;;7.09;80.37;101493.50;4974233;28;45488;-45
2022/12/19 06:14:27;;;;;;;;;13.00;11.75;;;;;7.09;79.93;101478.47;4974310;28;45433;-44
2022/12/19 06:16:52;;;;;;;;;17.75;14.75;;;;;7.10;79.89;101481.94;4973377;28;45439;-45
2022/12/19 06:19:17;;;;;;;;;20.25;14.75;;;;;7.10;79.63;101484.59;4974353;28;45430;-46
2022/12/19 06:21:43;;;;;;;;;18.00;12.25;;;;;7.11;80.04;101475.69;4974269;28;45401;-44
2022/12/19 06:24:08;;;;;;;;;16.00;13.00;;;;;7.11;79.74;101481.81;4973443;28;45376;-57
2022/12/19 06:26:33;;;;;;;;;15.25;12.75;;;;;7.15;80.09;101485.97;4974615;28;45311;-48
2022/12/19 06:28:59;;;;;;;;;20.75;16.75;;;;;7.17;79.61;101477.94;4975325;28;45375;-48
2022/12/19 06:31:24;;;;;;;;;18.00;11.25;;;;;7.18;79.63;101480.47;4974472;28;45422;-57
2022/12/19 06:33:50;;;;;;;;;13.50;13.00;;;;;7.19;79.91;101478.66;4974186;28;45244;-57
2022/12/19 06:36:27;;;;;;;;;13.25;12.50;;;;;7.20;79.76;101480.34;4974180;28;45360;-54
2022/12/19 06:38:54;;;;;;;;;13.75;13.50;;;;;7.22;79.61;101486.38;4975717;28;47301;-58
2022/12/19 06:44:06;;;;;;;;;20.25;15.50;;;;;7.25;79.77;101470.31;4976971;28;45374;-58
2022/12/19 06:46:32;;;;;;;;;18.50;15.75;;;;;7.28;79.88;101474.53;4992094;28;45520;-58
2022/12/19 06:48:58;;;;;;;;;15.25;13.00;;;;;7.27;79.87;101478.97;4976437;28;46129;-56
2022/12/19 06:51:24;;;;;;;;;19.50;13.50;;;;;7.19;80.00;101460.97;4976524;28;45453;-57
2022/12/19 06:53:49;;;;;;;;;23.00;12.75;;;;;7.29;80.09;101484.16;4977002;28;45338;-56
2022/12/19 06:56:16;;;;;;;;;13.00;12.25;;;;;7.29;79.59;101486.78;4976970;28;45322;-54
2022/12/19 06:58:42;;;;;;;;;20.25;16.75;;;;;7.29;79.65;101473.56;4976492;28;45685;-55
2022/12/19 07:01:17;;;;;;;;;17.50;13.25;;;;;7.30;80.11;101478.75;4976525;28;45304;-58
2022/12/19 07:03:44;;;;;;;;;15.75;11.00;;;;;7.30;79.64;101467.34;4976714;28;45465;-59
2022/12/19 07:06:09;;;;;;;;;14.50;12.75;;;;;7.33;80.53;101480.31;4976701;28;45484;-54
2022/12/19 07:08:34;;;;;;;;;17.75;13.00;;;;;7.33;80.30;101477.69;4977365;28;45328;-56
2022/12/19 07:11:00;;;;;;;;;17.25;12.50;;;;;7.33;80.48;101478.56;4976318;28;45427;-57
2022/12/19 07:13:26;;;;;;;;;15.75;14.50;;;;;7.34;80.03;101477.59;4976623;28;45418;-54
2022/12/19 07:15:53;;;;;;;;;16.00;13.50;;;;;7.35;80.62;101481.09;4976687;28;45421;-56
2022/12/19 07:18:19;;;;;;;;;19.75;14.00;;;;;7.34;80.03;101480.25;4976104;28;46196;-55
2022/12/19 07:20:45;;;;;;;;;16.25;13.75;;;;;7.37;80.38;101474.72;4976252;28;45535;-57
2022/12/19 07:23:14;;;;;;;;;17.00;12.50;;;;;7.39;79.41;101482.56;4976426;28;45292;-55
2022/12/19 07:25:40;;;;;;;;;15.50;14.00;;;;;7.39;79.93;101480.75;4976767;27;45342;-48
2022/12/19 07:28:06;;;;;;;;;16.25;13.00;;;;;7.41;80.25;101486.78;4976285;28;46210;-51
2022/12/19 07:30:32;;;;;;;;;13.00;9.00;;;;;7.40;79.16;101484.25;4976120;28;45307;-55
2022/12/19 07:32:57;;;;;;;;;13.00;12.00;;;;;7.42;79.89;101499.09;4976252;28;45420;-55
2022/12/19 07:35:23;;;;;;;;;20.25;14.75;;;;;7.39;80.47;101483.41;4976651;28;45479;-54
2022/12/19 07:37:49;;;;;;;;;18.00;14.00;;;;;7.43;79.95;101492.81;4976175;28;46850;-57
2022/12/19 07:40:16;;;;;;;;;16.00;13.00;;;;;7.43;79.92;101497.28;4976414;28;45311;-55
2022/12/19 07:42:41;;;;;;;;;14.75;14.00;;;;;7.43;79.01;101500.78;4976273;28;45220;-49
2022/12/19 07:45:07;;;;;;;;;18.75;13.00;;;;;7.43;80.12;101499.94;4976455;28;45342;-57
2022/12/19 07:47:32;;;;;;;;;13.75;12.25;;;;;7.41;79.59;101489.41;4975995;28;46094;-51
2022/12/19 07:49:58;;;;;;;;;14.75;11.25;;;;;7.44;78.79;101485.72;4975043;28;45329;-55
2022/12/19 07:52:23;;;;;;;;;16.00;13.00;;;;;7.44;79.92;101483.06;4976130;28;45221;-51
2022/12/19 07:54:49;;;;;;;;;14.75;11.75;;;;;7.47;78.76;101488.16;4976019;28;45420;-49
2022/12/19 07:57:14;;;;;;;;;18.75;14.00;;;;;7.44;79.61;101491.88;4975922;28;46204;-53
2022/12/19 07:59:39;;;;;;;;;19.75;13.75;;;;;7.50;79.63;101498.53;4975880;28;45199;-57
2022/12/19 08:02:05;;;;;;;;;20.25;13.75;;;;;7.51;78.98;101510.81;4975964;28;45354;-54
2022/12/19 08:04:30;;;;;;;;;20.00;16.00;;;;;7.53;79.09;101508.06;4976147;28;45434;-57
2022/12/19 08:06:56;;;;;;;;;14.00;12.25;;;;;7.54;78.46;101512.38;4975666;28;46029;-46
2022/12/19 08:09:21;;;;;;;;;16.25;14.50;;;;;7.57;78.74;101528.06;4975840;28;45334;-54
2022/12/19 08:11:46;;;;;;;;;19.75;16.00;;;;;7.57;78.77;101517.47;4975960;28;45646;-59
2022/12/19 08:14:12;;;;;;;;;3.00;1.25;;;;;7.57;78.95;101512.19;4976077;28;45371;-54
2022/12/19 08:16:37;;;;;;;;;11.50;11.50;;;;;7.58;78.88;101513.88;4975804;28;45343;-53
2022/12/19 08:19:02;;;;;;;;;18.50;13.00;;;;;7.60;78.32;101517.28;4974276;28;45523;-57
2022/12/19 08:21:29;;;;;;;;;13.00;12.25;;;;;7.61;78.87;101519.78;4975907;28;45252;-55
2022/12/19 08:23:54;;;;;;;;;19.25;13.00;;;;;7.64;78.31;101521.41;4977494;28;45492;-55
2022/12/19 08:26:24;;;;;;;;;12.25;12.25;;;;;7.62;78.77;101500.28;4975402;28;45490;-49
2022/12/19 08:28:54;;;;;;;;;15.00;12.50;;;;;7.64;78.61;101511.63;4975494;28;45417;-56
2022/12/19 08:31:23;;;;;;;;;16.00;12.25;;;;;7.68;79.01;101518.41;4975558;28;45401;-52
2022/12/19 08:33:49;;;;;;;;;16.50;12.25;;;;;7.69;78.41;101522.75;4975518;28;45277;-53
2022/12/19 08:36:19;;;;;;;;;15.75;12.75;;;;;7.72;77.96;101521.69;4975390;28;47176;-56
2022/12/19 08:38:45;;;;;;;;;20.25;14.50;;;;;7.75;78.40;101508.22;4975457;28;45338;-54
2022/12/19 08:41:11;;;;;;;;;18.00;10.00;;;;;7.77;78.01;101514.25;4975327;28;45161;-48
2022/12/19 08:43:37;;;;;;;;;10.50;9.00;;;;;7.80;77.57;101514.06;4975434;28;45303;-54
2022/12/19 08:46:03;;;;;;;;;12.25;11.25;;;;;7.85;77.75;101521.66;4975472;28;46103;-55
2022/12/19 08:48:30;;;;;;;;;15.75;12.50;;;;;7.83;77.39;101503.22;4975212;28;45347;-53
2022/12/19 08:51:03;;;;;;;;;17.00;13.25;;;;;7.89;77.51;101513.38;4975219;28;45392;-50
2022/12/19 08:53:30;;;;;;;;;14.50;14.25;;;;;7.91;77.73;101522.06;4976116;28;45375;-44
2022/12/19 08:55:57;;;;;;;;;14.25;10.50;;;;;7.96;77.74;101522.59;4975549;28;47474;-52
2022/12/19 08:58:24;;;;;;;;;14.50;13.00;;;;;7.95;77.34;101517.38;4975340;28;45469;-51
2022/12/19 09:00:51;;;;;;;;;12.75;11.25;;;;;7.94;76.73;101507.75;4975561;28;45377;-50
2022/12/19 09:03:17;;;;;;;;;12.75;8.75;;;;;8.04;77.11;101516.72;4976765;28;45548;-50
2022/12/19 09:05:42;;;;;;;;;20.25;13.25;;;;;8.04;76.78;101505.28;4974567;28;45979;-49
2022/12/19 09:08:07;;;;;;;;;14.25;13.25;;;;;8.09;76.90;101501.34;4975153;28;45167;-53
2022/12/19 09:10:36;;;;;;;;;17.00;12.75;;;;;8.12;76.91;101509.06;4975113;28;45278;-52
2022/12/19 09:13:02;;;;;;;;;16.25;13.25;;;;;8.07;76.27;101495.31;4973860;28;45455;-57
2022/12/19 09:15:27;;;;;;;;;15.75;9.50;;;;;8.20;76.55;101513.78;4974634;28;47263;-51
2022/12/19 09:17:52;;;;;;;;;19.50;13.50;;;;;8.24;76.39;101524.06;4975119;28;45352;-51
2022/12/19 09:20:18;;;;;;;;;11.25;11.25;;;;;8.30;75.53;101522.78;4975110;28;45750;-57
2022/12/19 09:22:43;;;;;;;;;15.50;14.25;;;;;8.38;75.94;101515.13;4975220;28;45376;-58
2022/12/19 09:25:09;;;;;;;;;14.00;12.00;;;;;8.46;75.69;101518.03;4974782;28;45386;-49
2022/12/19 09:27:35;;;;;;;;;17.00;15.75;;;;;8.52;74.95;101513.28;4974733;28;45477;-53
2022/12/19 09:30:01;;;;;;;;;15.00;14.00;;;;;8.52;75.40;101506.16;4974743;28;45144;-49
2022/12/19 09:32:26;;;;;;;;;16.50;12.75;;;;;8.64;74.89;101513.19;4975059;28;45457;-50
2022/12/19 09:34:52;;;;;;;;;20.00;13.75;;;;;8.69;74.60;101531.41;4974596;28;46097;-51
2022/12/19 09:37:17;;;;;;;;;12.00;11.50;;;;;8.61;74.99;101508.13;4974822;28;45292;-49
2022/12/19 09:39:45;;;;;;;;;14.50;11.00;;;;;8.70;73.97;101520.69;4974757;28;45272;-57
2022/12/19 09:42:29;;;;;;;;;13.00;10.50;;;;;8.78;74.38;101537.84;4975043;28;45363;-55
2022/12/19 09:45:24;;;;;;;;;14.00;13.50;;;;;8.81;74.25;101532.31;4974378;28;46368;-54
2022/12/19 09:47:53;;;;;;;;;12.00;10.67;;;;;8.90;73.62;101536.91;4974323;28;45400;-51
2022/12/19 09:50:31;;;;;;;;;16.50;14.00;;;;;8.93;73.49;101541.97;4974627;28;45345;-57
2022/12/19 09:53:03;;;;;;;;;14.00;11.33;;;;;8.95;73.80;101554.16;4974718;28;45395;-58
2022/12/19 09:55:36;;;;;;;;;14.00;14.00;;;;;8.95;73.78;101553.31;4974309;28;46021;-50
2022/12/19 09:58:12;;;;;;;;;16.50;14.25;;;;;8.93;73.75;101555.22;4975408;28;45330;-55
2022/12/19 10:01:00;;;;;;;;;12.00;11.75;;;;;8.79;73.36;101519.13;4975020;28;45340;-49
2022/12/19 10:03:43;;;;;;;;;14.33;12.33;;;;;8.90;73.67;101543.06;4974925;28;45207;-50
2022/12/19 10:06:17;;;;;;;;;15.50;15.50;;;;;8.88;73.11;101546.78;4974126;28;46318;-46
2022/12/19 10:08:43;;;;;;;;;14.67;9.33;;;;;8.89;73.87;101544.03;4972980;28;45340;-46
2022/12/19 10:11:15;;;;;;;;;13.33;11.00;;;;;8.89;73.75;101541.38;4974043;28;45299;-54
2022/12/19 10:14:08;;;;;;;;;17.50;12.25;;;;;8.88;73.01;101537.00;4973483;28;45299;-50
2022/12/19 10:16:50;;;;;;;;;14.25;13.50;;;;;8.90;73.37;101536.91;4973913;28;46093;-59
2022/12/19 10:19:53;;;;;;;;;18.25;14.25;;;;;8.92;73.45;101534.97;4973707;27;45379;-52
2022/12/19 10:22:40;;;;;;;;;16.75;13.75;;;;;8.93;73.16;101532.22;4952298;28;45385;-48
2022/12/19 10:25:31;;;;;;;;;18.00;13.00;;;;;8.92;73.11;101519.03;4952817;28;45404;-52
2022/12/19 10:27:59;;;;;;;;;14.50;12.50;;;;;8.99;72.87;101528.25;4958484;28;46471;-48
2022/12/19 10:30:25;;;;;;;;;18.67;14.67;;;;;9.00;72.92;101517.50;4952040;28;45277;-48
2022/12/19 10:33:05;;;;;;;;;17.25;10.75;;;;;9.01;72.84;101518.34;4952140;28;45325;-45
2022/12/19 10:35:41;;;;;;;;;14.75;14.00;;;;;9.03;72.91;101523.56;4952182;28;45555;-45
2022/12/19 10:38:28;;;;;;;;;18.00;16.33;;;;;9.03;72.58;101512.94;4951778;28;45816;-44
2022/12/19 10:41:09;;;;;;;;;18.75;15.25;;;;;9.10;72.73;101512.34;4951817;28;45390;-44
2022/12/19 10:44:09;;;;;;;;;18.67;14.67;;;;;9.12;72.57;101515.72;4951874;28;45434;-45
2022/12/19 10:46:48;;;;;;;;;17.50;15.50;;;;;9.17;72.27;101512.69;4952266;28;45610;-47
2022/12/19 10:49:27;;;;;;;;;18.00;13.33;;;;;9.13;71.73;101495.31;4951649;28;46623;-50
2022/12/19 10:51:55;;;;;;;;;15.75;14.00;;;;;9.20;71.72;101510.66;4951723;28;45340;-50
2022/12/19 10:54:24;;;;;;;;;14.00;13.00;;;;;9.14;72.34;101495.22;4952091;28;45396;-47
2022/12/19 10:56:50;;;;;;;;;22.00;15.67;;;;;9.23;71.78;101512.25;4952093;28;45480;-47
2022/12/19 10:59:20;;;;;;;;;22.75;15.00;;;;;9.29;72.20;101516.22;4968127;28;45395;-48
2022/12/19 11:01:47;;;;;;;;;17.00;15.25;;;;;9.28;71.84;101510.06;4973568;28;45421;-46
2022/12/19 11:04:33;;;;;;;;;18.00;17.00;;;;;9.25;71.47;101492.56;4973443;28;45292;-52
2022/12/19 11:07:01;;;;;;;;;16.00;14.25;;;;;9.36;71.10;101502.34;4973653;28;45386;-55
2022/12/19 11:09:46;;;;;;;;;13.33;10.67;;;;;9.36;70.94;101501.50;4973862;28;47136;-56
2022/12/19 11:12:16;;;;;;;;;15.33;13.67;;;;;9.37;70.72;101503.19;4973591;28;45285;-54
2022/12/19 11:14:49;;;;;;;;;21.33;16.00;;;;;9.34;70.46;101490.16;4973795;28;45438;-56
2022/12/19 11:17:36;;;;;;;;;20.00;17.25;;;;;9.36;70.64;101504.16;4973429;28;45425;-49
2022/12/19 11:20:11;;;;;;;;;15.75;11.25;;;;;9.34;71.37;101484.84;4973272;28;45406;-57
2022/12/19 11:22:37;;;;;;;;;19.00;12.67;;;;;9.35;70.68;101483.88;4973276;28;45501;-57
2022/12/19 11:25:03;;;;;;;;;22.50;16.50;;;;;9.38;70.92;101488.94;4974157;28;45411;-55
2022/12/19 11:27:36;;;;;;;;;23.00;16.00;;;;;9.41;70.70;101480.75;4976578;28;45390;-52
2022/12/19 11:30:08;;;;;;;;;16.00;10.50;;;;;9.43;70.51;101489.41;4976285;28;47093;-52
2022/12/19 11:32:35;;;;;;;;;20.00;17.33;;;;;9.42;70.72;101480.63;4976208;28;45611;-53
2022/12/19 11:35:13;;;;;;;;;20.00;15.33;;;;;9.47;70.87;101477.59;4976490;28;45430;-56